createdAt,value
2018-12-05T05:31:33.240Z,33.13
2018-12-05T05:34:01.250Z,34.87
2018-12-05T05:36:29.412Z,29.20
2018-12-05T05:38:57.434Z,43.73
2018-12-05T05:41:24.986Z,30.63
2018-12-05T05:43:52.919Z,33.57
2018-12-05T05:46:20.949Z,32.93
2018-12-05T05:48:48.886Z,28.00
2018-12-05T05:51:16.886Z,36.23
2018-12-05T05:53:44.985Z,31.83
2018-12-05T05:56:13.031Z,29.20
2018-12-05T05:58:40.970Z,31.40
2018-12-05T06:01:08.906Z,35.33
2018-12-05T06:03:36.915Z,27.73
2018-12-05T06:06:04.953Z,29.23
2018-12-05T06:08:32.883Z,30.47
2018-12-05T06:11:00.875Z,27.80
2018-12-05T06:13:28.783Z,30.03
2018-12-05T06:15:58.082Z,29.90
2018-12-05T06:18:26.077Z,30.73
2018-12-05T06:20:54.086Z,30.10
2018-12-05T06:23:22.103Z,29.83
2018-12-05T06:25:50.050Z,31.30
2018-12-05T06:28:17.975Z,32.73
2018-12-05T06:30:46.065Z,32.53
2018-12-05T06:33:13.990Z,36.13
2018-12-05T06:35:41.946Z,33.93
2018-12-05T06:38:09.887Z,33.90
2018-12-05T06:40:37.891Z,27.63
2018-12-05T06:43:05.845Z,36.60
2018-12-05T06:45:33.882Z,31.80
2018-12-05T06:48:01.808Z,29.93
2018-12-05T06:50:29.776Z,30.20
2018-12-05T06:52:57.834Z,26.30
2018-12-05T06:55:25.771Z,30.17
2018-12-05T06:57:53.782Z,30.40
2018-12-05T07:00:21.751Z,28.53
2018-12-05T07:02:50.331Z,38.50
2018-12-05T07:05:18.403Z,32.30
2018-12-05T07:07:46.588Z,29.53
2018-12-05T07:10:14.650Z,33.80
2018-12-05T07:12:42.585Z,35.37
2018-12-05T07:15:10.634Z,32.03
2018-12-05T07:17:38.143Z,32.03
2018-12-05T07:20:07.450Z,35.40
2018-12-05T07:22:35.382Z,34.97
2018-12-05T07:25:03.408Z,34.23
2018-12-05T07:27:31.358Z,35.10
2018-12-05T07:29:59.295Z,34.03
2018-12-05T07:32:27.295Z,37.37
2018-12-05T07:34:55.283Z,37.40
2018-12-05T07:37:23.308Z,33.47
2018-12-05T07:39:51.315Z,41.17
2018-12-05T07:42:19.242Z,43.83
2018-12-05T07:44:47.190Z,34.20
2018-12-05T15:50:07.708Z,23.03
2018-12-05T15:52:35.667Z,25.83
2018-12-05T15:55:03.851Z,19.47
2018-12-05T15:57:31.852Z,20.67
2018-12-05T15:59:59.962Z,25.27
2018-12-05T16:02:27.978Z,20.43
2018-12-05T16:04:55.918Z,19.80
2018-12-05T16:07:23.862Z,21.47
2018-12-05T16:09:51.891Z,20.90
2018-12-05T16:12:19.875Z,19.90
2018-12-05T16:14:48.073Z,20.20
2018-12-05T16:17:15.637Z,23.17
2018-12-05T16:19:43.182Z,22.43
2018-12-05T16:22:12.132Z,23.33
2018-12-05T16:24:40.170Z,27.37
2018-12-05T16:27:08.192Z,27.90
2018-12-05T16:29:36.134Z,21.80
2018-12-05T16:32:04.086Z,21.90
2018-12-05T16:34:32.082Z,22.57
2018-12-05T16:37:00.120Z,21.27
2018-12-05T16:39:28.135Z,20.63
2018-12-05T16:41:56.141Z,20.20
2018-12-05T16:44:24.114Z,21.83
2018-12-05T16:46:52.082Z,24.03
2018-12-05T16:49:21.392Z,21.23
2018-12-05T16:51:49.414Z,27.40
2018-12-05T16:54:17.506Z,31.80
2018-12-05T16:56:45.575Z,21.17
2018-12-05T16:59:13.715Z,26.10
2018-12-05T17:01:41.711Z,23.50
2018-12-05T17:04:09.742Z,19.03
2018-12-05T17:06:37.754Z,22.57
2018-12-05T17:09:06.402Z,22.03
2018-12-05T17:11:34.342Z,19.37
2018-12-05T17:14:02.362Z,20.43
2018-12-05T17:16:31.054Z,21.80
2018-12-05T17:18:59.004Z,23.20
2018-12-05T17:21:26.994Z,21.90
2018-12-05T17:23:54.937Z,24.60
2018-12-05T17:26:22.934Z,21.87
2018-12-05T17:28:50.872Z,20.73
2018-12-05T17:31:18.863Z,24.97
2018-12-05T17:33:46.843Z,22.87
2018-12-05T17:36:14.835Z,24.97
2018-12-05T17:38:42.762Z,24.23
2018-12-05T17:41:10.704Z,22.27
